createdAt,value
2022-09-02T00:02:36.632Z,9.68
2022-09-02T00:05:40.888Z,9.66
2022-09-02T00:08:44.690Z,9.63
2022-09-02T00:11:49.265Z,9.55
2022-09-02T00:14:51.730Z,9.48
2022-09-02T00:17:54.518Z,9.44
2022-09-02T00:20:58.768Z,9.50
2022-09-02T00:24:01.801Z,9.46
2022-09-02T00:27:04.373Z,9.47
2022-09-02T00:30:07.868Z,9.52
2022-09-02T00:33:10.526Z,9.41
2022-09-02T00:36:14.650Z,9.35
2022-09-02T00:39:17.134Z,9.36
2022-09-02T00:42:19.646Z,9.35
2022-09-02T00:45:22.835Z,9.24
2022-09-02T00:48:25.433Z,9.15
2022-09-02T00:51:33.649Z,9.15
2022-09-02T00:54:39.999Z,9.07
2022-09-02T00:57:46.538Z,8.99
2022-09-02T01:00:52.537Z,8.85
2022-09-02T01:03:56.461Z,8.89
2022-09-02T01:07:00.303Z,8.89
2022-09-02T01:10:03.932Z,8.88
2022-09-02T01:13:09.162Z,8.93
2022-09-02T01:16:17.653Z,8.97
2022-09-02T01:19:23.980Z,9.03
2022-09-02T01:22:31.196Z,9.21
2022-09-02T01:25:35.973Z,9.32
2022-09-02T01:28:38.764Z,9.42
2022-09-02T01:31:41.304Z,9.43
2022-09-02T01:34:43.900Z,9.23
2022-09-02T01:37:53.620Z,9.10
2022-09-02T01:40:58.194Z,9.04
2022-09-02T01:44:00.671Z,8.98
2022-09-02T01:47:03.265Z,9.01
2022-09-02T01:50:06.593Z,8.88
2022-09-02T01:53:10.677Z,8.70
2022-09-02T01:56:13.484Z,8.55
2022-09-02T01:59:17.949Z,8.42
2022-09-02T02:02:21.773Z,8.40
2022-09-02T02:05:24.462Z,8.41
2022-09-02T02:08:28.282Z,8.47
2022-09-02T02:11:30.810Z,8.44
2022-09-02T02:14:33.285Z,8.50
2022-09-02T02:17:35.869Z,8.57
2022-09-02T02:20:38.773Z,8.44
2022-09-02T02:23:43.015Z,8.47
2022-09-02T02:26:45.811Z,8.61
2022-09-02T02:29:48.532Z,8.56
2022-09-02T02:32:51.150Z,8.42
2022-09-02T02:35:53.660Z,8.34
2022-09-02T02:39:01.493Z,8.36
2022-09-02T02:42:04.003Z,8.45
2022-09-02T02:45:10.136Z,8.56
2022-09-02T02:48:17.753Z,8.75
2022-09-02T02:51:20.352Z,8.88
2022-09-02T02:54:24.293Z,8.99
2022-09-02T02:57:39.075Z,9.04
2022-09-02T03:00:41.779Z,8.99
2022-09-02T03:03:44.665Z,9.05
2022-09-02T03:06:47.233Z,9.08
2022-09-02T03:09:51.030Z,9.15
2022-09-02T03:12:53.530Z,9.24
2022-09-02T03:15:56.120Z,9.32
2022-09-02T03:18:58.687Z,9.36
2022-09-02T03:22:01.149Z,9.42
2022-09-02T03:25:05.825Z,9.40
2022-09-02T03:28:09.427Z,9.38
2022-09-02T03:31:16.750Z,9.46
2022-09-02T03:34:19.486Z,9.49
2022-09-02T03:37:22.246Z,9.52
2022-09-02T03:40:28.394Z,9.60
2022-09-02T03:43:30.945Z,9.52
2022-09-02T03:46:33.739Z,9.37
2022-09-02T03:49:36.487Z,9.32
2022-09-02T03:52:39.318Z,9.38
2022-09-02T03:55:43.153Z,9.44
2022-09-02T03:58:48.240Z,9.45
2022-09-02T04:01:51.794Z,9.45
2022-09-02T04:04:54.474Z,9.50
2022-09-02T04:07:57.344Z,9.52
2022-09-02T04:11:06.387Z,9.63
2022-09-02T04:14:09.401Z,9.55
2022-09-02T04:17:11.891Z,9.44
2022-09-02T04:20:15.299Z,9.36
2022-09-02T04:23:17.852Z,9.29
2022-09-02T04:26:23.359Z,9.30
2022-09-02T04:29:26.374Z,9.30
2022-09-02T04:32:29.484Z,9.36
2022-09-02T04:35:32.816Z,9.44
2022-09-02T04:38:35.904Z,9.47
2022-09-02T04:41:39.942Z,9.57
2022-09-02T04:44:43.815Z,10.05
2022-09-02T04:47:46.267Z,11.39
2022-09-02T04:50:49.048Z,12.59
2022-09-02T04:53:53.402Z,13.42
2022-09-02T04:56:57.188Z,13.39
2022-09-02T05:00:01.321Z,13.25
2022-09-02T05:03:04.894Z,14.13
2022-09-02T05:06:10.036Z,14.89
2022-09-02T05:09:12.555Z,15.72
2022-09-02T05:12:16.388Z,16.43
2022-09-02T05:15:19.063Z,17.04
2022-09-02T05:18:21.645Z,17.45
2022-09-02T05:21:24.600Z,17.74
2022-09-02T05:24:28.152Z,18.19
2022-09-02T05:27:33.369Z,18.44
2022-09-02T05:30:35.919Z,18.23
2022-09-02T05:33:40.934Z,18.43
2022-09-02T05:36:43.482Z,18.72
2022-09-02T05:39:46.035Z,18.63
2022-09-02T05:42:49.851Z,18.41
2022-09-02T05:45:52.436Z,18.06
2022-09-02T05:49:08.752Z,18.31
2022-09-02T05:52:14.205Z,18.81
2022-09-02T05:55:16.665Z,19.10
2022-09-02T05:58:21.237Z,18.37
2022-09-02T06:01:24.463Z,18.51
2022-09-02T06:04:27.113Z,18.76
2022-09-02T06:07:29.755Z,17.64
2022-09-02T06:10:32.283Z,15.88
2022-09-02T06:13:38.392Z,15.56
2022-09-02T06:16:42.702Z,16.16
2022-09-02T06:19:45.225Z,16.09
2022-09-02T06:22:48.599Z,16.30
2022-09-02T06:25:52.710Z,16.69
2022-09-02T06:28:56.508Z,16.73
2022-09-02T06:31:59.531Z,17.01
2022-09-02T06:35:01.989Z,17.39
2022-09-02T06:38:04.801Z,17.23
2022-09-02T06:41:07.679Z,17.38
2022-09-02T06:44:12.690Z,17.44
2022-09-02T06:47:17.721Z,17.38
2022-09-02T06:50:21.061Z,17.75
2022-09-02T06:53:24.363Z,18.41
2022-09-02T06:56:27.609Z,18.77
2022-09-02T06:59:31.509Z,18.55
2022-09-02T07:02:34.012Z,18.88
2022-09-02T07:05:35.505Z,19.15
2022-09-02T07:08:39.211Z,19.66
2022-09-02T07:11:41.918Z,19.76
2022-09-02T07:14:45.954Z,20.09
2022-09-02T07:17:49.625Z,20.36
2022-09-02T07:20:52.439Z,20.54
2022-09-02T07:23:55.119Z,20.30
2022-09-02T07:26:57.699Z,20.70
2022-09-02T07:30:01.471Z,20.80
2022-09-02T07:33:05.583Z,20.57
2022-09-02T07:36:10.994Z,20.53
2022-09-02T07:39:16.417Z,20.96
2022-09-02T07:42:19.562Z,20.75
2022-09-02T07:45:23.749Z,21.02
2022-09-02T07:48:26.575Z,21.79
2022-09-02T07:51:31.027Z,22.01
2022-09-02T07:54:33.652Z,22.02
2022-09-02T07:57:36.174Z,22.48
2022-09-02T08:00:41.893Z,22.51
2022-09-02T08:03:45.787Z,22.53
2022-09-02T08:06:48.547Z,22.45
2022-09-02T08:09:51.408Z,22.42
2022-09-02T08:12:54.055Z,22.21
2022-09-02T08:15:57.999Z,22.30
2022-09-02T08:19:00.460Z,22.33
2022-09-02T08:22:06.334Z,22.09
2022-09-02T08:25:09.807Z,22.33
2022-09-02T08:28:12.355Z,22.61
2022-09-02T08:31:16.539Z,23.62
2022-09-02T08:34:19.380Z,23.64
2022-09-02T08:37:22.758Z,22.92
2022-09-02T08:40:34.188Z,22.68
2022-09-02T08:43:40.250Z,23.09
2022-09-02T08:46:44.287Z,22.96
2022-09-02T08:49:51.264Z,23.66
2022-09-02T08:53:01.254Z,23.47
2022-09-02T08:56:10.875Z,23.30
2022-09-02T08:59:15.094Z,24.02
2022-09-02T09:02:27.119Z,24.34
2022-09-02T09:05:44.436Z,24.58
2022-09-02T09:08:57.403Z,24.25
2022-09-02T09:12:09.919Z,24.12
2022-09-02T09:15:19.571Z,24.23
2022-09-02T09:18:34.863Z,24.25
2022-09-02T09:21:37.591Z,24.73
2022-09-02T09:24:42.670Z,24.39
2022-09-02T09:27:46.886Z,24.78
2022-09-02T09:30:49.400Z,25.12
2022-09-02T09:34:02.151Z,24.27
2022-09-02T09:37:04.613Z,24.91
2022-09-02T09:40:31.803Z,24.12
2022-09-02T09:43:34.649Z,23.97
2022-09-02T09:46:37.095Z,24.56
2022-09-02T09:49:41.190Z,24.99
2022-09-02T09:52:44.012Z,24.58
2022-09-02T09:55:55.239Z,25.25
2022-09-02T09:58:57.748Z,25.25
2022-09-02T10:02:00.470Z,24.69
2022-09-02T10:05:18.989Z,25.48
2022-09-02T10:08:23.567Z,25.87
2022-09-02T10:11:28.756Z,26.93
2022-09-02T10:14:35.908Z,27.71
2022-09-02T10:17:47.030Z,26.08
2022-09-02T10:21:14.631Z,24.83
2022-09-02T10:24:39.195Z,24.73
2022-09-02T10:27:51.015Z,25.57
2022-09-02T10:31:00.734Z,26.40
2022-09-02T10:34:14.713Z,26.76
2022-09-02T10:37:20.864Z,25.73
2022-09-02T10:40:35.228Z,25.25
2022-09-02T10:44:00.300Z,24.70
2022-09-02T10:47:04.883Z,24.60
2022-09-02T10:50:18.265Z,24.37
2022-09-02T10:53:34.006Z,23.61
2022-09-02T10:56:42.647Z,23.31
2022-09-02T10:59:53.827Z,23.09
2022-09-02T11:03:06.236Z,22.21
2022-09-02T11:06:12.990Z,21.47
2022-09-02T11:09:28.700Z,21.46
2022-09-02T11:12:35.568Z,21.78
2022-09-02T11:15:48.607Z,22.12
2022-09-02T11:18:59.940Z,21.94
2022-09-02T11:22:09.369Z,21.92
2022-09-02T11:25:17.379Z,21.84
2022-09-02T11:28:29.626Z,21.57
2022-09-02T11:31:39.071Z,21.89
2022-09-02T11:34:46.925Z,23.58
2022-09-02T11:37:53.629Z,24.85
2022-09-02T11:41:35.179Z,24.80
2022-09-02T11:45:11.275Z,24.65
2022-09-02T11:48:33.215Z,23.61
2022-09-02T11:51:55.432Z,22.64
2022-09-02T11:55:09.101Z,22.69
2022-09-02T11:58:13.150Z,22.96
2022-09-02T12:01:30.184Z,23.53
2022-09-02T12:04:59.093Z,22.71
2022-09-02T12:07:57.668Z,23.02
2022-09-02T12:11:04.327Z,23.90
2022-09-02T12:14:11.795Z,23.32
2022-09-02T12:17:37.742Z,22.77
2022-09-02T12:21:08.617Z,23.38
2022-09-02T12:24:22.155Z,24.22
2022-09-02T12:27:28.224Z,24.41
2022-09-02T12:31:08.768Z,23.31
2022-09-02T12:34:49.203Z,22.25
2022-09-02T12:37:57.788Z,21.66
2022-09-02T12:41:22.010Z,23.14
2022-09-02T12:44:29.945Z,24.24
2022-09-02T12:47:45.098Z,24.50
2022-09-02T12:50:54.711Z,24.00
2022-09-02T12:53:59.114Z,23.83
2022-09-02T12:57:02.522Z,23.83
2022-09-02T13:00:05.681Z,23.51
2022-09-02T13:03:24.807Z,23.05
2022-09-02T13:06:39.764Z,22.58
2022-09-02T13:10:09.515Z,22.43
2022-09-02T13:13:41.855Z,22.49
2022-09-02T13:17:08.955Z,21.96
2022-09-02T13:20:40.153Z,22.51
2022-09-02T13:23:58.626Z,23.28
2022-09-02T13:27:21.543Z,23.82
2022-09-02T13:30:35.200Z,23.53
2022-09-02T13:33:42.351Z,22.53
2022-09-02T13:36:47.355Z,22.16
2022-09-02T13:39:49.834Z,23.07
2022-09-02T13:42:55.359Z,23.71
2022-09-02T13:46:02.695Z,23.84
2022-09-02T13:49:05.304Z,23.08
2022-09-02T13:52:15.054Z,22.60
2022-09-02T13:55:20.746Z,22.18
2022-09-02T13:58:34.979Z,22.23
2022-09-02T14:01:40.024Z,23.06
2022-09-02T14:04:42.852Z,23.44
2022-09-02T14:07:48.795Z,24.07
2022-09-02T14:10:53.885Z,24.27
2022-09-02T14:13:58.290Z,23.71
2022-09-02T14:17:19.293Z,23.59
2022-09-02T14:20:24.061Z,23.70
2022-09-02T14:23:28.067Z,23.88
2022-09-02T14:26:35.866Z,24.33
2022-09-02T14:29:44.924Z,23.78
2022-09-02T14:32:47.373Z,23.70
2022-09-02T14:35:58.157Z,23.67
2022-09-02T14:39:13.665Z,23.86
2022-09-02T14:42:16.786Z,23.79
2022-09-02T14:45:28.892Z,23.66
2022-09-02T14:48:38.137Z,23.73
2022-09-02T14:51:45.520Z,23.45
2022-09-02T14:54:49.850Z,23.27
2022-09-02T14:58:02.301Z,22.47
2022-09-02T15:01:08.450Z,21.93
2022-09-02T15:04:11.493Z,22.10
2022-09-02T15:07:17.141Z,22.35
2022-09-02T15:10:19.601Z,22.17
2022-09-02T15:13:28.611Z,22.22
2022-09-02T15:16:32.951Z,22.25
2022-09-02T15:19:35.465Z,21.81
2022-09-02T15:22:38.455Z,21.21
2022-09-02T15:25:40.946Z,20.84
2022-09-02T15:28:45.313Z,20.95
2022-09-02T15:31:52.422Z,21.46
2022-09-02T15:34:54.962Z,21.51
2022-09-02T15:37:57.529Z,21.45
2022-09-02T15:41:11.208Z,21.52
2022-09-02T15:44:13.659Z,21.44
2022-09-02T15:47:17.450Z,21.30
2022-09-02T15:50:20.658Z,21.26
2022-09-02T15:53:23.291Z,21.28
2022-09-02T15:56:27.887Z,21.27
2022-09-02T15:59:30.401Z,21.29
2022-09-02T16:02:34.223Z,21.23
2022-09-02T16:05:37.121Z,21.21
2022-09-02T16:08:39.617Z,21.26
2022-09-02T16:11:44.559Z,21.29
2022-09-02T16:14:50.968Z,21.10
2022-09-02T16:17:54.778Z,20.92
2022-09-02T16:20:57.296Z,20.88
2022-09-02T16:23:59.767Z,20.89
2022-09-02T16:27:03.105Z,20.85
2022-09-02T16:30:06.491Z,20.77
2022-09-02T16:33:10.265Z,20.69
2022-09-02T16:36:12.971Z,20.65
2022-09-02T16:39:15.600Z,20.53
2022-09-02T16:42:18.116Z,20.52
2022-09-02T16:45:20.552Z,20.45
2022-09-02T16:48:25.900Z,20.43
2022-09-02T16:51:30.136Z,20.31
2022-09-02T16:54:36.202Z,20.29
2022-09-02T16:57:41.272Z,20.18
2022-09-02T17:00:43.721Z,20.04
2022-09-02T17:03:47.895Z,19.96
2022-09-02T17:06:50.638Z,19.93
2022-09-02T17:09:53.111Z,19.92
2022-09-02T17:12:56.163Z,20.01
2022-09-02T17:15:58.610Z,20.04
2022-09-02T17:19:03.350Z,20.11
2022-09-02T17:22:05.884Z,20.06
2022-09-02T17:25:09.123Z,19.85
2022-09-02T17:28:11.578Z,19.80
2022-09-02T17:31:19.884Z,19.73
2022-09-02T17:34:23.735Z,19.55
2022-09-02T17:37:27.146Z,19.05
2022-09-02T17:40:47.027Z,18.49
2022-09-02T17:43:49.491Z,18.05
2022-09-02T17:46:52.086Z,17.79
2022-09-02T17:49:55.863Z,17.65
2022-09-02T17:52:58.331Z,17.51
2022-09-02T17:56:13.085Z,17.36
2022-09-02T17:59:25.801Z,17.21
2022-09-02T18:02:48.659Z,17.13
2022-09-02T18:06:08.001Z,17.10
2022-09-02T18:09:11.120Z,16.99
2022-09-02T18:12:13.938Z,16.99
2022-09-02T18:15:18.714Z,16.87
2022-09-02T18:18:21.668Z,16.71
2022-09-02T18:21:30.635Z,16.65
2022-09-02T18:24:47.975Z,16.56
2022-09-02T18:27:56.938Z,16.47
2022-09-02T18:31:08.688Z,16.36
2022-09-02T18:34:17.022Z,16.26
2022-09-02T18:37:32.335Z,16.17
2022-09-02T18:40:44.194Z,16.04
2022-09-02T18:43:57.257Z,15.96
2022-09-02T18:47:03.582Z,15.90
2022-09-02T18:50:07.827Z,15.81
2022-09-02T18:53:14.665Z,15.72
2022-09-02T18:56:21.048Z,15.70
2022-09-02T18:59:31.826Z,15.61
2022-09-02T19:02:41.459Z,15.52
2022-09-02T19:05:46.146Z,15.34
2022-09-02T19:08:59.453Z,15.18
2022-09-02T19:12:03.839Z,15.04
2022-09-02T19:15:09.788Z,14.95
2022-09-02T19:18:15.680Z,14.85
2022-09-02T19:21:23.081Z,14.74
2022-09-02T19:24:31.494Z,14.56
2022-09-02T19:27:38.726Z,14.33
2022-09-02T19:30:41.559Z,14.16
2022-09-02T19:33:44.395Z,14.06
2022-09-02T19:36:49.677Z,13.96
2022-09-02T19:39:54.173Z,13.86
2022-09-02T19:42:56.845Z,13.79
2022-09-02T19:45:59.931Z,13.70
2022-09-02T19:49:02.604Z,13.55
2022-09-02T19:52:05.511Z,13.41
2022-09-02T19:55:10.401Z,13.31
2022-09-02T19:58:12.954Z,13.36
2022-09-02T20:01:15.479Z,13.37
2022-09-02T20:04:18.630Z,13.31
2022-09-02T20:07:21.096Z,13.23
2022-09-02T20:10:28.101Z,13.19
2022-09-02T20:13:40.136Z,13.18
2022-09-02T20:16:44.244Z,13.16
2022-09-02T20:19:47.352Z,13.12
2022-09-02T20:22:55.626Z,13.13
2022-09-02T20:26:15.398Z,13.09
2022-09-02T20:29:32.236Z,12.91
2022-09-02T20:32:49.208Z,12.66
2022-09-02T20:36:10.090Z,12.51
2022-09-02T20:39:30.284Z,12.50
2022-09-02T20:42:56.097Z,12.51
2022-09-02T20:46:07.208Z,12.42
2022-09-02T20:49:23.446Z,12.24
2022-09-02T20:52:34.462Z,12.09
2022-09-02T20:55:40.252Z,11.99
2022-09-02T20:58:53.029Z,12.02
2022-09-02T21:02:01.764Z,11.99
2022-09-02T21:05:10.163Z,11.96
2022-09-02T21:08:24.830Z,11.79
2022-09-02T21:11:32.165Z,11.63
2022-09-02T21:14:41.231Z,11.46
2022-09-02T21:17:49.078Z,11.32
2022-09-02T21:20:56.717Z,11.21
2022-09-02T21:24:05.921Z,11.13
2022-09-02T21:27:15.480Z,11.07
2022-09-02T21:30:22.084Z,11.03
2022-09-02T21:33:28.953Z,10.98
2022-09-02T21:36:34.108Z,10.88
2022-09-02T21:39:40.582Z,10.78
2022-09-02T21:42:54.562Z,10.72
2022-09-02T21:46:07.447Z,10.60
2022-09-02T21:49:21.700Z,10.45
2022-09-02T21:52:31.279Z,10.34
2022-09-02T21:55:49.147Z,10.34
2022-09-02T21:59:06.613Z,10.35
2022-09-02T22:02:19.467Z,10.32
2022-09-02T22:05:33.120Z,10.37
2022-09-02T22:08:44.045Z,10.45
2022-09-02T22:11:50.195Z,10.58
2022-09-02T22:15:01.732Z,10.63
2022-09-02T22:18:16.017Z,10.65
2022-09-02T22:21:28.936Z,10.68
2022-09-02T22:24:34.319Z,10.69
2022-09-02T22:27:41.618Z,10.74
2022-09-02T22:30:50.754Z,10.78
2022-09-02T22:33:58.771Z,10.79
2022-09-02T22:37:06.181Z,10.82
2022-09-02T22:40:14.250Z,10.84
2022-09-02T22:43:23.549Z,10.85
2022-09-02T22:46:50.705Z,10.86
2022-09-02T22:50:15.622Z,10.86
2022-09-02T22:53:18.147Z,10.83
2022-09-02T22:56:32.154Z,10.83
2022-09-02T22:59:48.692Z,10.79
2022-09-02T23:03:08.253Z,10.78
2022-09-02T23:06:19.929Z,10.73
2022-09-02T23:09:22.521Z,10.68
2022-09-02T23:12:31.869Z,10.64
2022-09-02T23:15:42.410Z,10.61
2022-09-02T23:18:59.614Z,10.52
2022-09-02T23:22:11.462Z,10.44
2022-09-02T23:25:30.208Z,10.44
2022-09-02T23:28:49.655Z,10.55
2022-09-02T23:32:05.214Z,10.59
2022-09-02T23:35:17.451Z,10.53
2022-09-02T23:38:35.443Z,10.50
2022-09-02T23:41:38.865Z,10.40
2022-09-02T23:44:41.798Z,10.30
2022-09-02T23:47:54.662Z,10.22
2022-09-02T23:51:13.162Z,10.13
2022-09-02T23:54:31.614Z,10.06
2022-09-02T23:57:57.144Z,10.03
